Time;durP1;ratioP1;P1;durP2;ratioP2;P2;SDS_P1;SDS_P2;PMS_P1;PMS_P2;Temp;Humidity;BMP_temperature;BMP_pressure;BME280_temperature;BME280_humidity;BME280_pressure;Samples;Min_cycle;Max_cycle;Signal;HPM_P1;HPM_P2
2023/04/04 00:00:02;;;;;;;;;;;;;;;2.58;47.76;100862.09;1087791;54;20438;-82
2023/04/04 00:01:03;;;;;;;;;;;;;;;2.52;47.73;100859.75;1087806;54;20003;-82
2023/04/04 00:02:07;;;;;;;;;;;;;;;2.50;47.75;100862.47;1087818;54;19953;-82
2023/04/04 00:03:08;;;;;;;;;;;;;;;2.45;47.99;100853.94;1088186;31;20637;-82
2023/04/04 00:04:12;;;;;;;;;;;;;;;2.52;47.69;100852.69;1087683;54;19962;-81
2023/04/04 00:05:13;;;;;;;;;;;;;;;2.47;47.71;100857.31;1088605;39;20373;-81
2023/04/04 00:06:16;;;;;;;;;;;;;;;2.52;47.76;100860.63;1087451;54;19951;-81
2023/04/04 00:07:18;;;;;;;;;;;;;;;2.53;47.77;100859.69;1087630;54;19981;-82
2023/04/04 00:08:23;;;;;;;;;;;;;;;2.45;48.02;100853.94;1087627;54;20521;-82
2023/04/04 00:09:24;;;;;;;;;;;;;;;2.52;47.89;100847.41;1087564;54;19943;-82
2023/04/04 00:10:28;;;;;;;;;;;;;;;2.48;48.19;100856.41;1087510;54;19950;-82
2023/04/04 00:11:32;;;;;;;;;;;;;;;2.56;48.02;100861.31;1087421;54;19959;-82
2023/04/04 00:12:36;;;;;;;;;;;;;;;2.61;47.79;100856.66;1087462;54;19962;-81
2023/04/04 00:13:37;;;;;;;;;;;;;;;2.63;47.64;100860.09;1088009;54;19934;-82
2023/04/04 00:14:42;;;;;;;;;;;;;;;2.65;47.79;100843.25;1087935;54;19950;-81
2023/04/04 00:15:43;;;;;;;;;;;;;;;2.61;47.38;100841.69;1088544;54;19927;-83
2023/04/04 00:16:47;;;;;;;;;;;;;;;2.53;47.63;100849.13;1088402;54;19954;-83
2023/04/04 00:17:48;;;;;;;;;;;;;;;2.55;48.00;100852.53;1088436;54;19926;-83
2023/04/04 00:18:51;;;;;;;;;;;;;;;2.56;47.71;100840.19;1088453;54;19926;-84
2023/04/04 00:19:56;;;;;;;;;;;;;;;2.59;47.68;100850.63;1088603;54;19934;-84
2023/04/04 00:21:00;;;;;;;;;;;;;;;2.58;47.75;100844.47;1088563;54;19994;-83
2023/04/04 00:22:03;;;;;;;;;;;;;;;2.56;47.51;100845.47;1088462;54;19954;-84
2023/04/04 00:23:10;;;;;;;;;;;;;;;2.60;47.79;100841.75;1088430;54;20784;-84
2023/04/04 00:24:11;;;;;;;;;;;;;;;2.64;47.52;100840.69;1088463;54;19930;-84
2023/04/04 00:25:16;;;;;;;;;;;;;;;2.62;47.54;100848.69;1096881;46;19927;-85
2023/04/04 00:26:17;;;;;;;;;;;;;;;2.65;47.76;100842.41;1088595;54;19942;-85
2023/04/04 00:27:25;;;;;;;;;;;;;;;2.66;47.63;100841.47;1088401;54;19950;-84
2023/04/04 00:30:44;;;;;;;;;;;;;;;2.52;47.57;100851.81;1087761;54;20959;-83
2023/04/04 00:31:45;;;;;;;;;;;;;;;2.45;48.08;100841.56;1088578;54;19927;-83
2023/04/04 00:32:49;;;;;;;;;;;;;;;2.46;47.84;100847.69;1094904;39;20613;-84
2023/04/04 00:33:51;;;;;;;;;;;;;;;2.43;47.94;100847.84;1088578;54;19942;-84
2023/04/04 00:34:56;;;;;;;;;;;;;;;2.47;48.12;100846.75;1088473;54;20002;-84
2023/04/04 00:35:57;;;;;;;;;;;;;;;2.49;48.05;100843.16;1088500;54;19929;-85
2023/04/04 00:37:01;;;;;;;;;;;;;;;2.52;47.80;100844.78;1088512;54;19927;-82
2023/04/04 00:38:02;;;;;;;;;;;;;;;2.37;47.99;100837.56;1088407;54;19927;-82
2023/04/04 00:39:08;;;;;;;;;;;;;;;2.38;48.20;100840.16;1088526;54;19934;-84
2023/04/04 00:40:09;;;;;;;;;;;;;;;2.39;48.38;100841.00;1093318;39;20526;-84
2023/04/04 00:41:15;;;;;;;;;;;;;;;2.42;47.90;100840.88;1088609;54;19949;-85
2023/04/04 00:42:16;;;;;;;;;;;;;;;2.36;48.18;100833.25;1088563;54;19938;-84
2023/04/04 00:43:23;;;;;;;;;;;;;;;2.32;48.26;100832.50;1088455;54;19927;-83
2023/04/04 00:45:32;;;;;;;;;;;;;;;2.25;48.34;100834.59;1088471;54;19923;-84
2023/04/04 00:47:39;;;;;;;;;;;;;;;2.15;48.66;100839.44;1088524;54;19934;-83
2023/04/04 00:48:40;;;;;;;;;;;;;;;2.13;48.83;100832.53;1088264;54;19965;-83
2023/04/04 00:49:46;;;;;;;;;;;;;;;2.14;48.73;100832.44;1088265;54;19950;-84
2023/04/04 00:50:47;;;;;;;;;;;;;;;2.16;48.65;100835.03;1088278;54;19957;-83
2023/04/04 00:51:51;;;;;;;;;;;;;;;2.11;48.75;100831.75;1088371;54;19939;-83
2023/04/04 00:52:52;;;;;;;;;;;;;;;2.04;49.04;100831.16;1088281;54;19956;-81
2023/04/04 00:53:56;;;;;;;;;;;;;;;1.96;49.05;100830.66;1088269;54;20563;-83
2023/04/04 00:54:57;;;;;;;;;;;;;;;1.91;49.27;100836.13;1088269;54;20441;-82
2023/04/04 00:56:01;;;;;;;;;;;;;;;1.89;49.43;100823.97;1088251;54;19931;-83
2023/04/04 00:57:03;;;;;;;;;;;;;;;1.84;49.42;100830.28;1091686;46;20482;-81
2023/04/04 00:58:08;;;;;;;;;;;;;;;1.85;49.58;100831.16;1088016;54;19990;-81
2023/04/04 00:59:11;;;;;;;;;;;;;;;1.85;49.39;100825.88;1088102;54;19947;-81
2023/04/04 01:00:17;;;;;;;;;;;;;;;1.87;49.38;100832.78;1088300;54;19942;-81
2023/04/04 01:01:21;;;;;;;;;;;;;;;1.76;49.88;100831.56;1088149;54;19927;-82
2023/04/04 01:02:22;;;;;;;;;;;;;;;1.73;50.06;100831.69;1088218;54;19950;-83
2023/04/04 01:03:26;;;;;;;;;;;;;;;1.69;50.00;100836.25;1088235;54;19933;-81
2023/04/04 01:04:29;;;;;;;;;;;;;;;1.70;50.03;100828.28;1088489;39;20698;-81
2023/04/04 01:05:33;;;;;;;;;;;;;;;1.68;49.86;100834.53;1088189;54;19942;-82
2023/04/04 01:06:34;;;;;;;;;;;;;;;1.69;50.04;100830.97;1088145;54;19946;-83
2023/04/04 01:07:38;;;;;;;;;;;;;;;1.71;49.97;100829.97;1088183;54;19943;-82
2023/04/04 01:08:39;;;;;;;;;;;;;;;1.65;50.03;100835.53;1088139;54;19973;-82
2023/04/04 01:09:43;;;;;;;;;;;;;;;1.67;49.96;100828.44;1088014;54;20013;-82
2023/04/04 01:10:44;;;;;;;;;;;;;;;1.65;49.86;100827.63;1088148;54;19957;-82
2023/04/04 01:11:48;;;;;;;;;;;;;;;1.64;50.15;100833.81;1088197;54;20002;-83
2023/04/04 01:12:49;;;;;;;;;;;;;;;1.67;50.09;100833.69;1088062;54;19942;-82
2023/04/04 01:13:53;;;;;;;;;;;;;;;1.63;49.67;100824.19;1087957;54;20002;-81
2023/04/04 01:14:57;;;;;;;;;;;;;;;1.57;49.99;100827.13;1088322;54;20519;-82
2023/04/04 01:16:01;;;;;;;;;;;;;;;1.54;49.65;100832.53;1088216;54;19942;-83
2023/04/04 01:17:02;;;;;;;;;;;;;;;1.52;50.18;100832.59;1091715;39;20420;-82
2023/04/04 01:18:07;;;;;;;;;;;;;;;1.60;49.88;100827.00;1088273;54;19926;-82
2023/04/04 01:19:12;;;;;;;;;;;;;;;1.60;49.97;100836.66;1088290;54;19957;-83
2023/04/04 01:20:19;;;;;;;;;;;;;;;1.63;50.03;100826.84;1088281;54;19926;-81
2023/04/04 01:21:21;;;;;;;;;;;;;;;1.70;50.08;100828.28;1088334;54;19926;-83
2023/04/04 01:22:25;;;;;;;;;;;;;;;1.69;49.78;100826.59;1088386;54;19949;-83
2023/04/04 01:23:31;;;;;;;;;;;;;;;1.67;50.00;100831.06;1088294;54;19926;-84
2023/04/04 01:24:35;;;;;;;;;;;;;;;1.66;49.94;100826.72;1088235;54;19942;-82
2023/04/04 01:25:41;;;;;;;;;;;;;;;1.65;49.91;100830.28;1088081;54;19942;-82
2023/04/04 01:26:45;;;;;;;;;;;;;;;1.71;49.84;100821.22;1087995;54;19943;-82
2023/04/04 01:27:46;;;;;;;;;;;;;;;1.64;49.84;100830.34;1087982;54;19949;-80
2023/04/04 01:28:50;;;;;;;;;;;;;;;1.62;50.10;100824.28;1087957;54;20012;-81
2023/04/04 01:29:51;;;;;;;;;;;;;;;1.61;50.00;100825.19;1087830;54;19938;-82
2023/04/04 01:30:55;;;;;;;;;;;;;;;1.61;50.32;100823.41;1087893;54;19931;-82
2023/04/04 01:31:59;;;;;;;;;;;;;;;1.59;50.13;100822.66;1088022;54;19962;-82
2023/04/04 01:33:08;;;;;;;;;;;;;;;1.60;50.08;100820.84;1087957;54;19947;-83
2023/04/04 01:34:14;;;;;;;;;;;;;;;1.61;50.19;100823.41;1087993;54;19943;-82
2023/04/04 01:35:23;;;;;;;;;;;;;;;1.61;50.17;100822.56;1088152;47;19949;-82
2023/04/04 01:36:29;;;;;;;;;;;;;;;1.57;50.40;100821.84;1088259;54;19939;-82
2023/04/04 01:37:37;;;;;;;;;;;;;;;1.57;50.45;100819.22;1088309;54;19935;-81
2023/04/04 01:38:42;;;;;;;;;;;;;;;1.59;50.15;100825.28;1088503;54;19957;-82
2023/04/04 01:39:50;;;;;;;;;;;;;;;1.61;50.18;100823.41;1088268;54;19933;-82
2023/04/04 01:40:55;;;;;;;;;;;;;;;1.61;50.08;100828.69;1088411;54;19965;-82
2023/04/04 01:42:01;;;;;;;;;;;;;;;1.62;50.12;100819.00;1088364;54;19994;-81
2023/04/04 01:43:02;;;;;;;;;;;;;;;1.62;50.41;100824.28;1088314;54;19943;-82
2023/04/04 01:44:06;;;;;;;;;;;;;;;1.64;50.25;100822.44;1088331;54;20745;-82
2023/04/04 01:45:08;;;;;;;;;;;;;;;1.62;50.20;100822.50;1090107;46;19938;-80
2023/04/04 01:46:12;;;;;;;;;;;;;;;1.65;50.16;100819.72;1088485;54;19950;-82
2023/04/04 01:47:13;;;;;;;;;;;;;;;1.69;50.20;100821.31;1088071;54;19966;-83
2023/04/04 01:48:17;;;;;;;;;;;;;;;1.66;50.17;100826.72;1089954;46;21160;-83
2023/04/04 01:49:18;;;;;;;;;;;;;;;1.65;50.16;100824.16;1088415;54;19938;-82
2023/04/04 01:50:28;;;;;;;;;;;;;;;1.60;50.41;100827.00;1088478;54;19927;-83
2023/04/04 01:51:29;;;;;;;;;;;;;;;1.57;50.51;100824.47;1093108;39;20526;-82
2023/04/04 01:52:33;;;;;;;;;;;;;;;1.62;50.28;100830.41;1088347;54;20753;-82
2023/04/04 01:53:35;;;;;;;;;;;;;;;1.63;50.35;100821.56;1088255;54;19950;-82
2023/04/04 01:54:38;;;;;;;;;;;;;;;1.61;50.43;100822.56;1088342;54;20322;-82
2023/04/04 01:55:39;;;;;;;;;;;;;;;1.50;50.55;100823.91;1088497;54;19949;-82
2023/04/04 01:56:46;;;;;;;;;;;;;;;1.49;50.71;100816.06;1088405;54;19959;-82
2023/04/04 01:57:47;;;;;;;;;;;;;;;1.38;51.27;100824.41;1088271;54;19942;-82
2023/04/04 01:58:52;;;;;;;;;;;;;;;1.38;51.09;100817.38;1087894;54;19926;-81
2023/04/04 01:59:53;;;;;;;;;;;;;;;1.35;51.10;100820.16;1088200;54;20536;-82
2023/04/04 02:00:57;;;;;;;;;;;;;;;1.26;51.66;100817.91;1089538;39;20480;-82
2023/04/04 02:01:58;;;;;;;;;;;;;;;1.23;51.68;100818.03;1088524;54;20712;-82
2023/04/04 02:03:02;;;;;;;;;;;;;;;1.27;51.53;100822.25;1093650;39;20840;-84
2023/04/04 02:04:03;;;;;;;;;;;;;;;1.27;51.80;100817.00;1088691;54;19979;-82
2023/04/04 02:06:10;;;;;;;;;;;;;;;1.34;51.31;100818.44;1088273;54;19949;-81
2023/04/04 02:07:11;;;;;;;;;;;;;;;1.40;51.33;100810.28;1088366;54;19943;-83
2023/04/04 02:08:16;;;;;;;;;;;;;;;1.46;50.93;100814.44;1090823;39;20549;-82
2023/04/04 02:09:17;;;;;;;;;;;;;;;1.49;50.71;100808.16;1088362;54;19986;-80
2023/04/04 02:10:23;;;;;;;;;;;;;;;1.47;50.96;100804.72;1088420;54;19998;-81
2023/04/04 02:11:24;;;;;;;;;;;;;;;1.48;50.83;100811.72;1088321;54;19943;-81
2023/04/04 02:12:31;;;;;;;;;;;;;;;1.39;51.07;100810.31;1088347;54;19947;-82
2023/04/04 02:13:32;;;;;;;;;;;;;;;1.28;51.45;100813.44;1088346;54;20599;-82
2023/04/04 02:14:36;;;;;;;;;;;;;;;1.19;51.65;100811.19;1088359;54;19974;-82
2023/04/04 02:15:38;;;;;;;;;;;;;;;1.10;51.82;100817.69;1088354;54;19955;-83
2023/04/04 02:16:43;;;;;;;;;;;;;;;1.07;52.09;100813.44;1088353;54;19942;-81
2023/04/04 02:17:46;;;;;;;;;;;;;;;1.11;51.95;100810.69;1088356;54;19927;-82
2023/04/04 02:18:50;;;;;;;;;;;;;;;1.11;51.87;100816.78;1088252;54;19926;-82
2023/04/04 02:19:51;;;;;;;;;;;;;;;1.04;52.19;100816.19;1088383;54;19946;-85
2023/04/04 02:20:58;;;;;;;;;;;;;;;1.08;51.89;100815.16;1088361;54;19946;-84
2023/04/04 02:21:59;;;;;;;;;;;;;;;1.16;51.60;100821.84;1088326;54;19969;-82
2023/04/04 02:23:03;;;;;;;;;;;;;;;1.21;51.58;100815.47;1088397;54;20703;-81
2023/04/04 02:24:04;;;;;;;;;;;;;;;1.19;51.70;100816.47;1088400;54;19950;-82
2023/04/04 02:25:09;;;;;;;;;;;;;;;1.16;51.58;100817.47;1088341;54;19942;-82
2023/04/04 02:26:10;;;;;;;;;;;;;;;1.16;51.85;100808.69;1088345;54;20218;-83
2023/04/04 02:27:13;;;;;;;;;;;;;;;1.04;52.20;100813.53;1088277;54;19943;-82
2023/04/04 02:28:17;;;;;;;;;;;;;;;1.00;52.25;100814.63;1088420;54;19950;-84
2023/04/04 02:29:21;;;;;;;;;;;;;;;0.97;52.61;100817.38;1088337;54;19957;-84
2023/04/04 02:30:22;;;;;;;;;;;;;;;0.96;52.52;100809.53;1088428;54;19942;-85
2023/04/04 02:31:26;;;;;;;;;;;;;;;0.98;52.43;100802.44;1088241;54;19954;-84
2023/04/04 02:32:27;;;;;;;;;;;;;;;0.96;52.61;100818.28;1088528;54;19982;-79
2023/04/04 02:34:36;;;;;;;;;;;;;;;0.97;52.43;100814.75;1088736;54;19939;-82
2023/04/04 02:35:44;;;;;;;;;;;;;;;0.93;52.54;100821.06;1089334;46;19949;-80
2023/04/04 02:36:55;;;;;;;;;;;;;;;0.90;52.83;100810.66;1089872;46;19935;-83
2023/04/04 02:37:56;;;;;;;;;;;;;;;0.84;52.81;100821.44;1088555;46;20792;-84
2023/04/04 02:39:01;;;;;;;;;;;;;;;0.82;53.08;100815.38;1093061;46;20018;-82
2023/04/04 02:41:08;;;;;;;;;;;;;;;0.73;53.09;100816.59;1087706;54;19942;-83
2023/04/04 02:42:10;;;;;;;;;;;;;;;0.68;53.59;100818.59;1088419;54;19950;-82
2023/04/04 02:43:13;;;;;;;;;;;;;;;0.74;53.15;100806.03;1088352;54;19943;-82
2023/04/04 02:44:17;;;;;;;;;;;;;;;0.72;53.38;100814.88;1088536;54;20023;-83
2023/04/04 02:45:21;;;;;;;;;;;;;;;0.73;53.35;100814.84;1088474;54;20773;-82
2023/04/04 02:46:22;;;;;;;;;;;;;;;0.70;53.46;100812.34;1088186;54;19949;-83
2023/04/04 02:47:26;;;;;;;;;;;;;;;0.69;53.26;100821.16;1088354;54;19954;-82
2023/04/04 02:48:27;;;;;;;;;;;;;;;0.69;53.67;100810.63;1088235;54;19942;-82
2023/04/04 02:49:31;;;;;;;;;;;;;;;0.69;53.50;100813.25;1089207;39;20200;-84
2023/04/04 02:50:32;;;;;;;;;;;;;;;0.68;53.46;100810.69;1089728;39;20566;-82
2023/04/04 02:51:36;;;;;;;;;;;;;;;0.68;53.62;100815.94;1089871;46;19950;-81
2023/04/04 02:52:37;;;;;;;;;;;;;;;0.67;53.63;100809.81;1088184;54;19923;-82
2023/04/04 02:53:41;;;;;;;;;;;;;;;0.70;53.58;100808.84;1088273;54;19942;-81
2023/04/04 02:54:42;;;;;;;;;;;;;;;0.68;53.76;100811.53;1088419;54;20061;-82
2023/04/04 02:55:46;;;;;;;;;;;;;;;0.66;53.76;100812.53;1088383;54;19942;-83
2023/04/04 02:56:47;;;;;;;;;;;;;;;0.57;54.05;100817.25;1088431;54;19934;-81
2023/04/04 02:57:52;;;;;;;;;;;;;;;0.52;53.83;100815.72;1088366;54;19943;-82
2023/04/04 02:58:53;;;;;;;;;;;;;;;0.49;54.14;100814.06;1092200;39;20514;-82
2023/04/04 03:00:00;;;;;;;;;;;;;;;0.45;54.37;100815.97;1088444;54;19949;-82
2023/04/04 03:01:02;;;;;;;;;;;;;;;0.51;54.36;100814.88;1088434;54;19939;-82
2023/04/04 03:02:06;;;;;;;;;;;;;;;0.52;54.15;100813.91;1088383;54;19949;-82
2023/04/04 03:03:07;;;;;;;;;;;;;;;0.52;54.07;100813.06;1091833;39;20087;-82
2023/04/04 03:04:11;;;;;;;;;;;;;;;0.55;54.07;100812.97;1088521;54;19985;-82
2023/04/04 03:05:12;;;;;;;;;;;;;;;0.56;54.00;100814.69;1088338;54;20657;-84
2023/04/04 03:06:17;;;;;;;;;;;;;;;0.53;54.06;100812.16;1088822;46;19990;-82
2023/04/04 03:07:18;;;;;;;;;;;;;;;0.51;54.12;100811.34;1087999;54;19949;-82
2023/04/04 03:08:22;;;;;;;;;;;;;;;0.44;54.43;100816.88;1088350;54;19950;-84
2023/04/04 03:09:23;;;;;;;;;;;;;;;0.43;54.41;100812.53;1088283;54;19954;-82
2023/04/04 03:10:28;;;;;;;;;;;;;;;0.44;54.38;100808.09;1088099;54;19949;-81
2023/04/04 03:11:29;;;;;;;;;;;;;;;0.42;54.33;100810.81;1088166;54;20661;-83
2023/04/04 03:12:33;;;;;;;;;;;;;;;0.45;54.42;100815.09;1088070;54;20571;-83
2023/04/04 03:13:34;;;;;;;;;;;;;;;0.43;54.36;100816.91;1088122;54;19950;-82
2023/04/04 03:14:38;;;;;;;;;;;;;;;0.43;54.62;100817.78;1088218;54;20614;-84
2023/04/04 03:15:42;;;;;;;;;;;;;;;0.40;54.71;100817.91;1088180;54;19935;-82
2023/04/04 03:16:48;;;;;;;;;;;;;;;0.38;54.63;100817.09;1088280;54;19994;-82
2023/04/04 03:17:49;;;;;;;;;;;;;;;0.38;55.00;100811.00;1088234;54;20713;-82
2023/04/04 03:18:53;;;;;;;;;;;;;;;0.37;54.84;100815.41;1088332;54;19938;-82
2023/04/04 03:19:54;;;;;;;;;;;;;;;0.38;54.82;100805.72;1088404;54;19934;-84
2023/04/04 03:20:57;;;;;;;;;;;;;;;0.41;54.69;100814.34;1088385;54;19943;-83
2023/04/04 03:21:59;;;;;;;;;;;;;;;0.42;54.57;100812.59;1088403;54;19943;-83
2023/04/04 03:23:03;;;;;;;;;;;;;;;0.35;54.87;100817.25;1098419;39;20250;-83
2023/04/04 03:24:04;;;;;;;;;;;;;;;0.40;54.60;100811.78;1088452;54;19949;-82
2023/04/04 03:25:09;;;;;;;;;;;;;;;0.37;54.93;100807.53;1088497;54;19949;-82
2023/04/04 03:26:10;;;;;;;;;;;;;;;0.37;54.94;100811.91;1088425;54;19991;-82
2023/04/04 03:27:13;;;;;;;;;;;;;;;0.30;55.13;100814.78;1088300;54;20011;-82
2023/04/04 03:28:16;;;;;;;;;;;;;;;0.27;55.03;100807.00;1088414;54;20333;-84
2023/04/04 03:29:20;;;;;;;;;;;;;;;0.26;55.14;100804.44;1094070;39;20158;-83
2023/04/04 03:30:21;;;;;;;;;;;;;;;0.24;55.19;100807.13;1088447;54;19935;-82
2023/04/04 03:31:27;;;;;;;;;;;;;;;0.21;55.44;100804.63;1088349;54;20654;-83
2023/04/04 03:32:29;;;;;;;;;;;;;;;0.23;55.43;100805.44;1088394;54;19931;-83
2023/04/04 03:33:33;;;;;;;;;;;;;;;0.20;55.39;100804.66;1088391;54;19973;-83
2023/04/04 03:34:34;;;;;;;;;;;;;;;0.16;55.61;100803.94;1088356;54;20006;-82
2023/04/04 03:35:39;;;;;;;;;;;;;;;0.16;55.63;100806.56;1088392;54;19942;-82
2023/04/04 03:36:43;;;;;;;;;;;;;;;0.15;55.55;100807.47;1088430;54;19923;-84
2023/04/04 03:37:44;;;;;;;;;;;;;;;0.14;55.64;100809.25;1088329;47;19942;-83
2023/04/04 03:38:47;;;;;;;;;;;;;;;0.15;55.68;100803.09;1088296;54;19943;-83
2023/04/04 03:39:49;;;;;;;;;;;;;;;0.23;55.57;100794.03;1088289;54;19942;-83
2023/04/04 03:40:52;;;;;;;;;;;;;;;0.27;55.47;100806.16;1088353;54;19942;-83
2023/04/04 03:41:53;;;;;;;;;;;;;;;0.23;55.63;100786.16;1087677;54;19961;-83
2023/04/04 03:42:57;;;;;;;;;;;;;;;0.20;55.39;100799.41;1088400;54;19949;-87
2023/04/04 03:43:59;;;;;;;;;;;;;;;0.21;55.31;100801.13;1088429;54;19930;-82
2023/04/04 03:45:03;;;;;;;;;;;;;;;0.24;55.49;100801.84;1088359;54;20818;-83
2023/04/04 03:46:04;;;;;;;;;;;;;;;0.27;55.45;100803.53;1088412;54;20609;-83
2023/04/04 03:47:11;;;;;;;;;;;;;;;0.25;55.45;100806.22;1088383;54;20294;-83
2023/04/04 03:48:12;;;;;;;;;;;;;;;0.28;55.47;100805.25;1088358;54;19949;-83
2023/04/04 03:49:16;;;;;;;;;;;;;;;0.31;55.41;100802.47;1088308;54;20575;-84
2023/04/04 03:50:17;;;;;;;;;;;;;;;0.30;55.25;100795.50;1088372;54;19943;-83
2023/04/04 03:51:24;;;;;;;;;;;;;;;0.28;55.52;100805.25;1088387;54;19927;-83
2023/04/04 03:52:26;;;;;;;;;;;;;;;0.24;55.34;100801.84;1088318;54;19934;-81
2023/04/04 03:53:30;;;;;;;;;;;;;;;0.21;55.54;100806.38;1088305;54;19943;-83
2023/04/04 03:54:31;;;;;;;;;;;;;;;0.18;55.49;100802.09;1088375;54;19943;-83
2023/04/04 03:55:35;;;;;;;;;;;;;;;0.15;55.80;100805.72;1088353;54;20672;-83
2023/04/04 03:56:36;;;;;;;;;;;;;;;0.15;55.65;100803.09;1091640;46;20712;-82
2023/04/04 03:57:40;;;;;;;;;;;;;;;0.18;55.74;100809.16;1088281;54;19942;-84
2023/04/04 03:58:41;;;;;;;;;;;;;;;0.17;55.96;100813.53;1088048;54;19949;-84
2023/04/04 03:59:45;;;;;;;;;;;;;;;0.12;55.59;100803.19;1088414;54;19943;-86
2023/04/04 04:00:46;;;;;;;;;;;;;;;0.13;55.56;100814.59;1088424;54;19931;-82
2023/04/04 04:01:50;;;;;;;;;;;;;;;0.08;55.86;100816.53;1088193;54;19999;-83
2023/04/04 04:02:53;;;;;;;;;;;;;;;0.03;55.83;100810.59;1088246;54;19957;-83
2023/04/04 04:03:57;;;;;;;;;;;;;;;0.03;55.94;100818.50;1088278;54;20009;-84
2023/04/04 04:04:58;;;;;;;;;;;;;;;-0.01;55.95;100817.75;1088365;54;19934;-82
2023/04/04 04:06:02;;;;;;;;;;;;;;;0.01;55.99;100817.69;1088305;54;19954;-84
2023/04/04 04:07:03;;;;;;;;;;;;;;;-0.03;55.90;100817.78;1097244;31;20629;-83
2023/04/04 04:08:07;;;;;;;;;;;;;;;-0.01;56.02;100823.84;1088277;54;20005;-82
2023/04/04 04:09:08;;;;;;;;;;;;;;;0.01;56.22;100820.31;1088256;54;19953;-83
2023/04/04 04:10:13;;;;;;;;;;;;;;;-0.01;56.32;100823.00;1088265;54;19943;-83
2023/04/04 04:11:14;;;;;;;;;;;;;;;0.04;56.12;100817.56;1088188;54;19951;-83
2023/04/04 04:12:18;;;;;;;;;;;;;;;0.01;56.04;100823.78;1088334;54;19949;-84
2023/04/04 04:13:19;;;;;;;;;;;;;;;-0.04;56.04;100823.97;1090373;39;20247;-83
2023/04/04 04:14:23;;;;;;;;;;;;;;;-0.02;56.21;100823.91;1089967;46;20665;-84
2023/04/04 04:15:24;;;;;;;;;;;;;;;0.01;56.20;100825.56;1088362;54;19930;-83
2023/04/04 04:16:29;;;;;;;;;;;;;;;0.04;55.98;100814.94;1089562;46;19943;-84
2023/04/04 04:17:30;;;;;;;;;;;;;;;0.01;56.11;100815.06;1088225;54;19994;-82
2023/04/04 04:18:36;;;;;;;;;;;;;;;-0.02;56.40;100816.03;1089002;46;19946;-85
2023/04/04 04:19:37;;;;;;;;;;;;;;;0.03;56.06;100823.75;1088307;54;19926;-83
2023/04/04 04:20:41;;;;;;;;;;;;;;;-0.01;56.53;100818.59;1088248;54;19942;-83
2023/04/04 04:21:42;;;;;;;;;;;;;;;-0.05;56.44;100816.97;1088280;54;19946;-84
2023/04/04 04:22:48;;;;;;;;;;;;;;;-0.10;56.66;100813.69;1088146;54;19942;-80
2023/04/04 04:23:50;;;;;;;;;;;;;;;-0.07;56.70;100818.84;1088016;54;19942;-81
2023/04/04 04:24:54;;;;;;;;;;;;;;;-0.07;56.36;100807.44;1088092;54;19939;-81
2023/04/04 04:25:56;;;;;;;;;;;;;;;-0.09;56.59;100814.53;1087760;54;19965;-83
2023/04/04 04:26:59;;;;;;;;;;;;;;;-0.10;56.69;100823.34;1088984;46;19938;-80
2023/04/04 04:28:00;;;;;;;;;;;;;;;-0.12;56.42;100815.50;1087676;54;19947;-81
2023/04/04 04:29:04;;;;;;;;;;;;;;;-0.12;56.88;100817.28;1087642;54;19943;-81
2023/04/04 04:30:06;;;;;;;;;;;;;;;-0.11;56.92;100817.22;1087656;54;20306;-81
2023/04/04 04:31:11;;;;;;;;;;;;;;;-0.09;56.67;100825.03;1087631;54;19938;-82
2023/04/04 04:32:15;;;;;;;;;;;;;;;-0.08;56.64;100811.88;1087651;54;19942;-81
2023/04/04 04:33:18;;;;;;;;;;;;;;;-0.08;56.72;100811.88;1087724;46;19982;-79
2023/04/04 04:34:22;;;;;;;;;;;;;;;-0.09;56.63;100814.53;1087099;54;19942;-83
2023/04/04 04:35:26;;;;;;;;;;;;;;;-0.08;56.89;100821.50;1088556;46;19949;-80
2023/04/04 04:36:27;;;;;;;;;;;;;;;-0.05;56.79;100818.78;1087520;54;19943;-81
2023/04/04 04:37:30;;;;;;;;;;;;;;;0.01;56.65;100815.91;1087522;54;19943;-80
2023/04/04 04:38:32;;;;;;;;;;;;;;;0.02;56.61;100811.50;1087509;54;19942;-81
2023/04/04 04:39:35;;;;;;;;;;;;;;;0.03;56.64;100814.06;1089148;46;19939;-81
2023/04/04 04:40:36;;;;;;;;;;;;;;;0.07;56.51;100815.69;1087602;54;19946;-80
2023/04/04 04:41:40;;;;;;;;;;;;;;;0.03;56.72;100814.06;1088735;39;20249;-80
2023/04/04 04:42:45;;;;;;;;;;;;;;;0.07;56.53;100814.81;1087330;54;19961;-80
2023/04/04 04:43:48;;;;;;;;;;;;;;;0.12;56.53;100815.50;1087805;46;19939;-80
2023/04/04 04:44:50;;;;;;;;;;;;;;;0.13;56.42;100817.22;1087450;54;19942;-81
2023/04/04 04:45:53;;;;;;;;;;;;;;;0.11;56.39;100816.41;1089032;39;20633;-81
2023/04/04 04:46:57;;;;;;;;;;;;;;;0.09;56.50;100812.97;1087691;54;19947;-80
2023/04/04 04:47:58;;;;;;;;;;;;;;;0.04;56.31;100814.94;1087470;54;19939;-80
2023/04/04 04:49:02;;;;;;;;;;;;;;;0.01;56.58;100815.91;1088010;46;19977;-79
2023/04/04 04:50:07;;;;;;;;;;;;;;;0.03;56.50;100821.13;1087549;54;19938;-79
2023/04/04 04:51:10;;;;;;;;;;;;;;;0.02;56.81;100822.88;1088371;46;19957;-82
2023/04/04 04:52:11;;;;;;;;;;;;;;;-0.07;56.63;100823.22;1087576;54;19950;-81
2023/04/04 04:53:15;;;;;;;;;;;;;;;-0.05;56.80;100819.63;1087606;54;19943;-82
2023/04/04 04:54:16;;;;;;;;;;;;;;;-0.06;57.11;100811.78;1088628;46;19938;-81
2023/04/04 04:55:20;;;;;;;;;;;;;;;-0.13;56.89;100820.84;1087588;54;19939;-82
2023/04/04 04:56:21;;;;;;;;;;;;;;;-0.13;57.27;100818.19;1087517;54;20007;-82
2023/04/04 04:57:25;;;;;;;;;;;;;;;-0.10;56.98;100823.34;1087968;46;20677;-81
2023/04/04 04:58:26;;;;;;;;;;;;;;;-0.13;57.26;100820.84;1087471;54;19950;-80
2023/04/04 04:59:30;;;;;;;;;;;;;;;-0.15;57.45;100818.28;1089754;46;19946;-80
2023/04/04 05:00:31;;;;;;;;;;;;;;;-0.13;57.20;100819.03;1087570;54;19946;-81
2023/04/04 05:01:35;;;;;;;;;;;;;;;-0.10;57.34;100823.34;1087568;54;19938;-81
2023/04/04 05:02:36;;;;;;;;;;;;;;;-0.09;57.64;100822.41;1087685;54;19942;-82
2023/04/04 05:03:39;;;;;;;;;;;;;;;-0.10;57.53;100823.34;1087530;54;19950;-82
2023/04/04 05:04:43;;;;;;;;;;;;;;;-0.13;57.67;100818.19;1090568;39;20643;-82
2023/04/04 05:05:50;;;;;;;;;;;;;;;-0.19;57.88;100821.91;1087557;54;20661;-82
2023/04/04 05:06:51;;;;;;;;;;;;;;;-0.21;57.77;100821.97;1088251;47;19964;-82
2023/04/04 05:07:55;;;;;;;;;;;;;;;-0.22;57.89;100816.75;1087527;54;19943;-81
2023/04/04 05:08:56;;;;;;;;;;;;;;;-0.20;58.29;100823.69;1087991;46;19939;-82
2023/04/04 05:10:01;;;;;;;;;;;;;;;-0.17;58.65;100820.94;1087527;54;19939;-80
2023/04/04 05:11:02;;;;;;;;;;;;;;;-0.13;58.15;100823.47;1087543;54;19938;-82
2023/04/04 05:12:06;;;;;;;;;;;;;;;-0.14;57.99;100819.97;1089394;46;19947;-80
2023/04/04 05:13:08;;;;;;;;;;;;;;;-0.17;57.84;100820.09;1087481;54;19995;-82
2023/04/04 05:14:13;;;;;;;;;;;;;;;-0.19;58.11;100820.13;1087703;54;19938;-81
2023/04/04 05:15:14;;;;;;;;;;;;;;;-0.22;58.14;100817.63;1087729;47;19954;-82
2023/04/04 05:16:19;;;;;;;;;;;;;;;-0.22;57.70;100829.91;1087549;54;19949;-82
2023/04/04 05:17:21;;;;;;;;;;;;;;;-0.13;57.54;100823.47;1087752;47;19957;-82
2023/04/04 05:18:26;;;;;;;;;;;;;;;-0.17;58.04;100828.81;1087976;47;19998;-81
2023/04/04 05:19:27;;;;;;;;;;;;;;;-0.19;57.72;100828.00;1087424;54;20027;-82
2023/04/04 05:20:31;;;;;;;;;;;;;;;-0.19;58.00;100825.38;1087508;54;20285;-84
2023/04/04 05:21:37;;;;;;;;;;;;;;;-0.23;57.61;100826.44;1087819;47;19994;-82
2023/04/04 05:22:41;;;;;;;;;;;;;;;-0.24;57.83;100821.25;1088845;47;19939;-80
2023/04/04 05:23:47;;;;;;;;;;;;;;;-0.28;58.22;100823.09;1087551;54;19950;-82
2023/04/04 05:24:48;;;;;;;;;;;;;;;-0.26;58.00;100828.31;1087587;54;19949;-82
2023/04/04 05:25:52;;;;;;;;;;;;;;;-0.24;58.07;100831.75;1087532;54;20677;-81
2023/04/04 05:26:53;;;;;;;;;;;;;;;-0.24;58.11;100827.34;1087919;47;19973;-82
2023/04/04 05:27:57;;;;;;;;;;;;;;;-0.18;58.23;100827.09;1088007;47;20637;-81
2023/04/04 05:29:01;;;;;;;;;;;;;;;-0.22;58.39;100825.53;1087562;54;19938;-81
2023/04/04 05:30:02;;;;;;;;;;;;;;;-0.23;58.39;100826.44;1087543;54;19958;-82
2023/04/04 05:31:06;;;;;;;;;;;;;;;-0.21;57.92;100827.25;1087573;54;19930;-81
2023/04/04 05:32:07;;;;;;;;;;;;;;;-0.19;57.99;100835.06;1088298;47;19938;-81
2023/04/04 05:33:11;;;;;;;;;;;;;;;-0.24;58.20;100829.97;1087553;54;19942;-82
2023/04/04 05:34:12;;;;;;;;;;;;;;;-0.22;57.95;100829.91;1087497;54;19939;-82
2023/04/04 05:35:15;;;;;;;;;;;;;;;-0.23;58.20;100829.06;1087578;47;19950;-82